Time;durP1;ratioP1;P1;durP2;ratioP2;P2;SDS_P1;SDS_P2;PMS_P1;PMS_P2;Temp;Humidity;BMP_temperature;BMP_pressure;BME280_temperature;BME280_humidity;BME280_pressure;Samples;Min_cycle;Max_cycle;Signal;HPM_P1;HPM_P2
2022/03/30 00:00:39;;;;;;;37.63;22.95;;;4.00;99.90;;;;;;4978919;28;89434;-35
2022/03/30 00:03:04;;;;;;;35.83;22.33;;;4.00;99.90;;;;;;4980089;28;88911;-35
2022/03/30 00:05:30;;;;;;;34.65;21.52;;;3.90;99.90;;;;;;4961638;28;89898;-33
2022/03/30 00:07:56;;;;;;;34.50;21.02;;;4.00;99.90;;;;;;4978737;28;89992;-35
2022/03/30 00:10:23;;;;;;;39.58;21.67;;;4.00;99.90;;;;;;4978967;28;90043;-37
2022/03/30 00:12:49;;;;;;;33.05;22.70;;;3.90;99.90;;;;;;4960401;28;90184;-34
2022/03/30 00:15:16;;;;;;;33.83;19.80;;;3.90;99.90;;;;;;4979446;28;89066;-34
2022/03/30 00:17:41;;;;;;;39.60;21.13;;;4.00;99.90;;;;;;4978220;28;90438;-33
2022/03/30 00:20:08;;;;;;;30.85;20.73;;;4.00;99.90;;;;;;5020984;22;90599;-35
2022/03/30 00:22:33;;;;;;;32.17;21.67;;;4.00;99.90;;;;;;4980721;28;90538;-34
2022/03/30 00:24:59;;;;;;;33.55;22.75;;;4.00;99.90;;;;;;4998430;28;90245;-36
2022/03/30 00:27:24;;;;;;;29.52;21.58;;;4.00;99.90;;;;;;4998759;28;90021;-35
2022/03/30 00:29:50;;;;;;;36.10;22.15;;;4.00;99.90;;;;;;4998010;28;89505;-36
2022/03/30 00:32:16;;;;;;;36.47;23.58;;;4.00;99.90;;;;;;4999251;28;89560;-35
2022/03/30 00:34:41;;;;;;;38.80;23.02;;;4.00;99.90;;;;;;4998146;28;89352;-35
2022/03/30 00:37:08;;;;;;;35.33;23.30;;;4.00;99.90;;;;;;4998692;28;90218;-37
2022/03/30 00:39:34;;;;;;;37.53;22.83;;;4.00;99.90;;;;;;4998952;28;89967;-36
2022/03/30 00:42:00;;;;;;;42.05;24.65;;;4.00;99.90;;;;;;4998251;28;89617;-36
2022/03/30 00:44:26;;;;;;;32.65;22.02;;;4.00;99.90;;;;;;4998108;28;90082;-35
2022/03/30 00:46:52;;;;;;;38.05;23.15;;;4.00;99.90;;;;;;4998618;28;90273;-36
2022/03/30 00:49:17;;;;;;;34.50;22.45;;;4.00;99.90;;;;;;4998105;28;88815;-35
2022/03/30 00:51:43;;;;;;;38.78;22.02;;;4.00;99.90;;;;;;4998511;28;89967;-35
2022/03/30 00:54:09;;;;;;;33.28;22.25;;;4.00;99.90;;;;;;4998039;28;88705;-34
2022/03/30 00:56:36;;;;;;;28.65;20.73;;;4.00;99.90;;;;;;4998634;28;90223;-38
2022/03/30 00:59:05;;;;;;;34.95;22.23;;;4.00;99.90;;;;;;4998726;28;89770;-34
2022/03/30 01:01:31;;;;;;;37.97;23.48;;;4.00;99.90;;;;;;5000533;28;89379;-33
2022/03/30 01:03:57;;;;;;;32.70;23.45;;;4.00;99.90;;;;;;5001457;28;88912;-33
2022/03/30 01:06:23;;;;;;;36.25;21.65;;;4.00;99.90;;;;;;5002210;28;89287;-36
2022/03/30 01:08:49;;;;;;;37.83;22.27;;;4.00;99.90;;;;;;5000987;28;90616;-37
2022/03/30 01:11:16;;;;;;;35.33;21.05;;;4.00;99.90;;;;;;5001386;28;90469;-34
2022/03/30 01:13:42;;;;;;;43.00;23.42;;;4.10;99.90;;;;;;5001662;28;88329;-34
2022/03/30 01:16:07;;;;;;;40.72;22.58;;;4.00;99.90;;;;;;5001461;28;89245;-33
2022/03/30 01:18:40;;;;;;;32.00;21.80;;;4.00;99.90;;;;;;5001759;28;89737;-39
2022/03/30 01:21:08;;;;;;;33.28;22.35;;;4.00;99.90;;;;;;5001297;28;89906;-37
2022/03/30 01:23:34;;;;;;;37.13;22.00;;;4.00;99.90;;;;;;5001395;28;89716;-39
2022/03/30 01:26:00;;;;;;;31.85;23.52;;;3.90;99.90;;;;;;5002084;28;90361;-36
2022/03/30 01:28:28;;;;;;;41.47;22.08;;;3.90;99.90;;;;;;5001288;28;89779;-34
2022/03/30 01:33:48;;;;;;;40.30;23.85;;;3.90;99.90;;;;;;5000856;28;90502;-33
2022/03/30 01:36:16;;;;;;;44.50;22.38;;;3.90;99.90;;;;;;5001215;28;89486;-33
2022/03/30 01:38:45;;;;;;;42.28;23.08;;;3.90;99.90;;;;;;5000364;28;90017;-34
2022/03/30 01:41:11;;;;;;;;;;;3.80;99.90;;;;;;5001917;28;89494;-36
2022/03/30 01:43:37;;;;;;;34.88;21.27;;;3.80;99.90;;;;;;5003847;28;87554;-35
2022/03/30 01:46:02;;;;;;;27.92;20.30;;;3.80;99.90;;;;;;5001418;28;90208;-36
2022/03/30 01:48:28;;;;;;;41.90;21.70;;;3.70;99.90;;;;;;5001193;28;89443;-36
2022/03/30 01:50:54;;;;;;;28.77;19.40;;;3.60;99.90;;;;;;5000735;28;90396;-33
2022/03/30 01:53:19;;;;;;;37.50;23.13;;;3.60;99.90;;;;;;5001739;28;88728;-34
2022/03/30 01:55:45;;;;;;;34.42;22.00;;;3.50;99.90;;;;;;5001050;28;90090;-34
2022/03/30 01:58:11;;;;;;;33.22;20.98;;;3.40;99.90;;;;;;5000300;28;90525;-34
2022/03/30 02:00:37;;;;;;;39.03;22.42;;;3.40;99.90;;;;;;5001073;28;89726;-38
2022/03/30 02:03:03;;;;;;;31.05;21.67;;;3.40;99.90;;;;;;5000358;28;89430;-34
2022/03/30 02:05:31;;;;;;;43.53;23.92;;;3.40;99.90;;;;;;5001011;28;89586;-34
2022/03/30 02:07:56;;;;;;;34.28;23.30;;;3.50;99.90;;;;;;5001000;28;89600;-35
2022/03/30 02:10:22;;;;;;;35.42;21.83;;;3.60;99.90;;;;;;5000486;28;91016;-34
2022/03/30 02:12:48;;;;;;;34.65;23.35;;;3.60;99.90;;;;;;4981646;28;88818;-36
2022/03/30 02:15:13;;;;;;;31.73;22.83;;;3.70;99.90;;;;;;5001332;28;90436;-34
2022/03/30 02:17:40;;;;;;;38.35;21.55;;;3.70;99.90;;;;;;5001127;28;88950;-33
2022/03/30 02:20:08;;;;;;;37.42;21.55;;;3.70;99.90;;;;;;5000886;28;89509;-34
2022/03/30 02:22:34;;;;;;;41.77;22.77;;;3.80;99.90;;;;;;5000562;28;89950;-33
2022/03/30 02:24:59;;;;;;;29.02;19.75;;;3.80;99.90;;;;;;5000460;28;90828;-33
2022/03/30 02:27:25;;;;;;;36.63;22.85;;;3.90;99.90;;;;;;5000573;28;89571;-36
2022/03/30 02:29:53;;;;;;;35.78;21.50;;;3.90;99.90;;;;;;5000337;28;89774;-37
2022/03/30 02:32:19;;;;;;;38.42;22.67;;;3.90;99.90;;;;;;5000841;28;88131;-36
2022/03/30 02:34:45;;;;;;;38.70;21.88;;;3.90;99.90;;;;;;5000260;28;91871;-33
2022/03/30 02:37:12;;;;;;;35.85;23.70;;;4.00;99.90;;;;;;5000805;28;89908;-33
2022/03/30 02:39:38;;;;;;;38.55;21.65;;;4.00;99.90;;;;;;4999585;28;89566;-35
2022/03/30 02:42:07;;;;;;;37.17;24.23;;;4.00;99.90;;;;;;5001210;28;89565;-36
2022/03/30 02:44:33;;;;;;;;;;;4.00;99.90;;;;;;5001291;28;90112;-36
2022/03/30 02:47:00;;;;;;;40.58;24.13;;;4.00;99.90;;;;;;5000812;28;90432;-33
2022/03/30 02:49:27;;;;;;;38.55;23.17;;;4.00;99.90;;;;;;4999745;28;90441;-35
2022/03/30 02:51:52;;;;;;;43.58;23.35;;;4.00;99.90;;;;;;5000097;28;89870;-34
2022/03/30 02:54:18;;;;;;;36.92;23.55;;;4.00;99.90;;;;;;5000261;28;90078;-34
2022/03/30 02:56:44;;;;;;;54.53;27.45;;;4.10;99.90;;;;;;5000666;28;88760;-39
2022/03/30 02:59:09;;;;;;;39.30;24.65;;;4.10;99.90;;;;;;5000150;28;90416;-38
2022/03/30 03:01:35;;;;;;;35.15;24.35;;;4.20;99.90;;;;;;4999409;28;88857;-37
2022/03/30 03:04:01;;;;;;;38.38;25.20;;;4.20;99.90;;;;;;5000532;28;90186;-33
2022/03/30 03:06:26;;;;;;;38.28;22.60;;;4.20;99.90;;;;;;4999777;28;89931;-34
2022/03/30 03:08:52;;;;;;;37.95;24.83;;;4.20;99.90;;;;;;5000097;28;89489;-37
2022/03/30 03:11:18;;;;;;;39.83;23.75;;;4.20;99.90;;;;;;4999082;28;88797;-35
2022/03/30 03:13:43;;;;;;;40.83;24.35;;;4.30;99.90;;;;;;4999469;28;90410;-38
2022/03/30 03:16:11;;;;;;;37.85;22.77;;;4.30;99.90;;;;;;4999958;28;89556;-34
2022/03/30 03:18:37;;;;;;;37.20;20.65;;;4.30;99.90;;;;;;4999239;28;89485;-34
2022/03/30 03:21:02;;;;;;;31.55;22.20;;;4.40;99.90;;;;;;4999607;28;89325;-38
2022/03/30 03:23:28;;;;;;;33.55;21.83;;;4.40;99.90;;;;;;4999531;28;90223;-36
2022/03/30 03:25:54;;;;;;;36.65;22.48;;;4.40;99.90;;;;;;4999492;28;89259;-36
2022/03/30 03:28:20;;;;;;;35.20;21.52;;;4.40;99.90;;;;;;5000276;28;90283;-37
2022/03/30 03:30:45;;;;;;;36.88;24.13;;;4.40;99.90;;;;;;4998988;28;89446;-36
2022/03/30 03:33:11;;;;;;;33.38;21.92;;;4.50;99.90;;;;;;5000050;28;90808;-36
2022/03/30 03:35:38;;;;;;;36.50;22.83;;;4.50;99.90;;;;;;4999263;28;90076;-33
2022/03/30 03:38:05;;;;;;;35.95;22.02;;;4.50;99.90;;;;;;4999154;28;89616;-36
2022/03/30 03:40:31;;;;;;;30.05;21.45;;;4.50;99.90;;;;;;5000273;28;89435;-35
2022/03/30 03:42:57;;;;;;;32.45;22.13;;;4.50;99.90;;;;;;4999402;28;89268;-36
2022/03/30 03:45:23;;;;;;;38.03;21.55;;;4.50;99.90;;;;;;4999192;28;89737;-36
2022/03/30 03:47:49;;;;;;;34.75;21.63;;;4.50;99.90;;;;;;4999269;28;89118;-35
2022/03/30 03:50:15;;;;;;;36.22;21.40;;;4.50;99.90;;;;;;4999028;28;87740;-35
2022/03/30 03:52:41;;;;;;;36.42;24.05;;;4.50;99.90;;;;;;4999071;28;90375;-38
2022/03/30 03:55:07;;;;;;;28.98;20.52;;;4.50;99.90;;;;;;4999267;28;90748;-34
2022/03/30 03:57:34;;;;;;;40.90;21.38;;;4.60;99.90;;;;;;4998789;28;90848;-33
2022/03/30 04:00:01;;;;;;;38.15;23.63;;;4.50;99.90;;;;;;4998902;28;90446;-38
2022/03/30 04:02:26;;;;;;;34.67;22.60;;;4.50;99.90;;;;;;4999910;28;90270;-33
2022/03/30 04:04:52;;;;;;;53.70;23.70;;;4.40;99.90;;;;;;4998327;28;89737;-34
2022/03/30 04:07:17;;;;;;;41.33;22.70;;;4.40;99.90;;;;;;4999037;28;90029;-36
2022/03/30 04:09:43;;;;;;;41.05;22.98;;;4.40;99.90;;;;;;4998661;28;88622;-38
2022/03/30 04:12:09;;;;;;;38.35;24.58;;;4.50;99.90;;;;;;4998824;28;90572;-33
2022/03/30 04:14:34;;;;;;;30.52;22.50;;;4.40;99.90;;;;;;4998826;28;89713;-38
2022/03/30 04:17:00;;;;;;;33.40;22.65;;;4.40;99.90;;;;;;4999311;28;89728;-35
2022/03/30 04:19:26;;;;;;;41.20;23.00;;;4.40;99.90;;;;;;4998500;28;87624;-35
2022/03/30 04:21:52;;;;;;;30.55;21.90;;;4.40;99.90;;;;;;4997993;28;90194;-35
2022/03/30 04:24:17;;;;;;;35.70;24.30;;;4.40;99.90;;;;;;4998636;28;90498;-34
2022/03/30 04:26:43;;;;;;;37.00;23.60;;;4.40;99.90;;;;;;4998600;28;90425;-37
2022/03/30 04:29:09;;;;;;;41.08;22.40;;;4.40;99.90;;;;;;4998668;28;89030;-39
2022/03/30 04:31:34;;;;;;;36.72;25.80;;;4.50;99.90;;;;;;4998169;28;89446;-38
2022/03/30 04:34:01;;;;;;;32.42;24.38;;;4.40;99.90;;;;;;4998299;28;90252;-37
2022/03/30 04:36:26;;;;;;;38.45;25.67;;;4.40;99.90;;;;;;4997745;28;89653;-34
2022/03/30 04:38:52;;;;;;;38.17;26.10;;;4.50;99.90;;;;;;4998977;28;89901;-34
2022/03/30 04:41:18;;;;;;;36.90;27.35;;;4.50;99.90;;;;;;4998704;28;90600;-38
2022/03/30 04:43:44;;;;;;;44.58;26.30;;;4.50;99.90;;;;;;4998154;28;89497;-36
2022/03/30 04:46:09;;;;;;;38.80;26.65;;;4.50;99.90;;;;;;4998289;28;90888;-37
2022/03/30 04:48:36;;;;;;;39.22;25.77;;;4.50;99.90;;;;;;4998160;28;90132;-36
2022/03/30 04:51:02;;;;;;;32.08;25.90;;;4.50;99.90;;;;;;4998615;28;90409;-33
2022/03/30 04:53:28;;;;;;;42.88;28.80;;;4.60;99.90;;;;;;4998252;28;90579;-38
2022/03/30 04:55:53;;;;;;;32.88;25.75;;;4.60;99.90;;;;;;4998131;28;89652;-34
2022/03/30 04:58:19;;;;;;;43.88;26.73;;;4.60;99.90;;;;;;4998737;28;89605;-35
2022/03/30 05:00:44;;;;;;;44.65;26.35;;;4.60;99.90;;;;;;4998262;28;90387;-33
2022/03/30 05:03:10;;;;;;;39.33;27.52;;;4.70;99.90;;;;;;4998269;28;89061;-34
2022/03/30 05:05:35;;;;;;;41.50;27.73;;;4.70;99.90;;;;;;4998399;28;89715;-38
2022/03/30 05:08:01;;;;;;;41.15;26.55;;;4.70;99.90;;;;;;4998480;28;88456;-33
2022/03/30 05:10:28;;;;;;;42.20;27.85;;;4.70;99.90;;;;;;4998100;28;90450;-37
2022/03/30 05:12:54;;;;;;;43.70;26.65;;;4.80;99.90;;;;;;4997658;28;89541;-35
2022/03/30 05:15:23;;;;;;;42.63;28.05;;;4.80;99.90;;;;;;4997952;28;90826;-33
2022/03/30 05:17:48;;;;;;;48.70;27.40;;;4.80;99.90;;;;;;4997790;28;89850;-35
2022/03/30 05:20:16;;;;;;;38.58;26.23;;;4.80;99.90;;;;;;4997486;28;90641;-34
2022/03/30 05:22:43;;;;;;;38.17;24.90;;;4.80;99.90;;;;;;4998336;28;89498;-32
2022/03/30 05:25:11;;;;;;;35.03;21.70;;;4.90;99.90;;;;;;4997598;28;90905;-35
2022/03/30 05:27:38;;;;;;;34.90;22.75;;;4.90;99.90;;;;;;4997778;28;89106;-34
2022/03/30 05:30:04;;;;;;;37.35;24.40;;;4.90;99.90;;;;;;4998058;28;90101;-35
2022/03/30 05:32:30;;;;;;;36.22;22.88;;;4.90;99.90;;;;;;4997812;28;90613;-34
2022/03/30 05:34:56;;;;;;;40.67;22.52;;;4.90;99.90;;;;;;4998158;28;89047;-34
2022/03/30 05:37:21;;;;;;;33.17;22.70;;;5.00;99.90;;;;;;4997589;28;89189;-33
2022/03/30 05:39:47;;;;;;;39.72;23.48;;;5.00;99.90;;;;;;4997540;28;90128;-33
2022/03/30 05:42:14;;;;;;;31.33;19.55;;;5.10;99.90;;;;;;4997937;28;90520;-36
2022/03/30 05:44:40;;;;;;;24.77;18.23;;;5.10;99.90;;;;;;4979865;28;89865;-35
2022/03/30 05:47:09;;;;;;;35.55;15.05;;;5.10;99.90;;;;;;4998498;28;88380;-35
2022/03/30 05:49:38;;;;;;;20.60;12.70;;;5.10;99.90;;;;;;5000785;28;89626;-38
2022/03/30 05:52:05;;;;;;;14.13;8.25;;;5.20;99.90;;;;;;5000666;28;89715;-38
2022/03/30 05:54:31;;;;;;;10.00;8.93;;;5.20;99.90;;;;;;5002502;28;89583;-35
2022/03/30 05:57:00;;;;;;;11.57;7.88;;;5.20;99.90;;;;;;5001460;28;89859;-33
2022/03/30 05:59:26;;;;;;;;;;;5.20;99.90;;;;;;5001934;28;90696;-34
2022/03/30 06:01:51;;;;;;;7.10;5.50;;;5.10;99.90;;;;;;5002769;28;90417;-35
2022/03/30 06:04:17;;;;;;;8.13;5.32;;;5.10;99.90;;;;;;5001357;28;90590;-34
2022/03/30 06:06:43;;;;;;;5.25;4.40;;;5.10;99.90;;;;;;5001343;28;89827;-34
2022/03/30 06:09:08;;;;;;;4.05;2.65;;;5.10;99.90;;;;;;4983817;28;92620;-33
2022/03/30 06:11:34;;;;;;;3.40;2.60;;;5.10;99.90;;;;;;5000977;28;89156;-33
2022/03/30 06:14:00;;;;;;;2.95;2.08;;;5.10;99.90;;;;;;5001553;28;89539;-36
2022/03/30 06:16:27;;;;;;;1.75;1.60;;;5.20;99.90;;;;;;5001629;28;88771;-37
2022/03/30 06:18:54;;;;;;;1.50;1.38;;;5.20;99.90;;;;;;5001243;28;90248;-37
2022/03/30 06:21:20;;;;;;;1.23;1.15;;;5.20;99.90;;;;;;5001496;28;88344;-36
2022/03/30 06:23:46;;;;;;;1.60;1.50;;;5.30;99.90;;;;;;5000466;28;89576;-36
2022/03/30 06:26:11;;;;;;;1.20;1.10;;;5.30;99.90;;;;;;4999735;28;88880;-37
2022/03/30 06:28:37;;;;;;;1.40;1.30;;;5.30;99.90;;;;;;5000911;28;91141;-35
2022/03/30 06:31:04;;;;;;;1.58;1.42;;;5.20;99.90;;;;;;4982977;28;89580;-33
2022/03/30 06:33:29;;;;;;;1.60;1.20;;;5.20;99.90;;;;;;5001371;28;89798;-36
2022/03/30 06:35:56;;;;;;;1.48;1.17;;;5.10;99.90;;;;;;5001614;28;89219;-35
2022/03/30 06:38:21;;;;;;;1.65;1.55;;;5.20;99.90;;;;;;5001201;28;90132;-33
2022/03/30 06:40:47;;;;;;;2.03;1.83;;;5.10;99.90;;;;;;5001542;28;89643;-34
2022/03/30 06:43:14;;;;;;;4.85;1.83;;;5.10;99.90;;;;;;5000883;28;90556;-35
2022/03/30 06:45:40;;;;;;;3.00;2.80;;;5.00;99.90;;;;;;5000885;28;87610;-37
2022/03/30 06:48:06;;;;;;;1.75;1.65;;;5.10;99.90;;;;;;5000480;28;90061;-36
2022/03/30 06:50:32;;;;;;;2.28;2.08;;;5.00;99.90;;;;;;4999087;28;91170;-37
2022/03/30 06:52:59;;;;;;;2.60;2.40;;;5.20;99.90;;;;;;5000019;28;90830;-37
2022/03/30 06:55:25;;;;;;;2.45;2.28;;;5.20;99.90;;;;;;5001135;28;89979;-33
2022/03/30 06:57:51;;;;;;;1.98;1.88;;;5.30;99.90;;;;;;4999992;28;90315;-36
2022/03/30 07:00:17;;;;;;;2.58;2.38;;;5.30;99.90;;;;;;4999815;28;89971;-34
2022/03/30 07:02:43;;;;;;;1.80;1.70;;;5.30;99.90;;;;;;4961988;28;89932;-33
2022/03/30 07:05:09;;;;;;;2.15;1.95;;;5.30;99.90;;;;;;5000855;28;89061;-36
2022/03/30 07:10:23;;;;;;;2.67;2.47;;;5.40;99.90;;;;;;5000220;28;89750;-32
2022/03/30 07:12:51;;;;;;;2.58;2.38;;;5.40;99.90;;;;;;5001133;28;88360;-33
2022/03/30 07:15:19;;;;;;;2.45;2.03;;;5.40;99.90;;;;;;5000327;28;87999;-35
2022/03/30 07:17:47;;;;;;;3.90;2.28;;;5.50;99.90;;;;;;5000663;28;90045;-36
2022/03/30 07:20:14;;;;;;;2.47;2.27;;;5.50;99.90;;;;;;4999813;28;90033;-35
2022/03/30 07:22:41;;;;;;;3.13;2.13;;;5.70;99.90;;;;;;4998308;28;90788;-34
2022/03/30 07:25:07;;;;;;;3.60;1.88;;;5.70;99.90;;;;;;4999884;28;90199;-34
2022/03/30 07:27:32;;;;;;;3.10;2.33;;;5.90;99.90;;;;;;5000266;28;90491;-37
2022/03/30 07:29:58;;;;;;;3.85;2.15;;;6.00;99.90;;;;;;4998034;28;88748;-35
2022/03/30 07:32:24;;;;;;;5.38;4.10;;;6.30;99.90;;;;;;4998671;28;92030;-34
2022/03/30 07:34:52;;;;;;;3.85;2.75;;;6.40;99.90;;;;;;4978893;28;88668;-37
2022/03/30 07:37:17;;;;;;;4.75;4.18;;;6.30;99.90;;;;;;4998158;28;90652;-33
2022/03/30 07:39:43;;;;;;;3.22;2.92;;;6.30;99.90;;;;;;4997463;28;90602;-38
2022/03/30 07:42:09;;;;;;;4.32;3.92;;;6.20;99.90;;;;;;4997528;28;90213;-38
2022/03/30 07:44:34;;;;;;;4.68;4.25;;;6.10;99.90;;;;;;4998219;28;89715;-40
2022/03/30 07:47:01;;;;;;;3.55;3.25;;;6.20;99.90;;;;;;4997948;28;90265;-34
2022/03/30 07:49:26;;;;;;;5.15;3.45;;;6.10;99.90;;;;;;4997351;28;90064;-36
2022/03/30 07:51:52;;;;;;;3.08;2.85;;;5.90;99.90;;;;;;4998270;28;89808;-33
2022/03/30 07:54:17;;;;;;;3.45;3.15;;;5.90;99.90;;;;;;4998056;28;90201;-33
2022/03/30 07:56:43;;;;;;;4.57;2.67;;;6.00;99.90;;;;;;4997951;28;89668;-33
2022/03/30 07:59:09;;;;;;;3.80;2.90;;;5.90;99.90;;;;;;4997533;28;89843;-36
2022/03/30 08:01:34;;;;;;;3.63;2.67;;;5.80;99.90;;;;;;4998073;28;89579;-35
2022/03/30 08:04:00;;;;;;;2.75;2.53;;;5.90;99.90;;;;;;4997758;28;90257;-35
2022/03/30 08:06:26;;;;;;;3.42;2.60;;;6.00;99.90;;;;;;4997189;28;90262;-35
2022/03/30 08:08:52;;;;;;;2.55;2.35;;;6.20;99.90;;;;;;4996960;28;89540;-35
2022/03/30 08:11:18;;;;;;;1.98;1.88;;;6.30;99.90;;;;;;4996051;28;89212;-35
2022/03/30 08:13:43;;;;;;;2.97;2.50;;;6.20;99.90;;;;;;4979756;28;89858;-34
2022/03/30 08:16:09;;;;;;;2.53;2.28;;;6.20;99.90;;;;;;4979723;28;90035;-36
2022/03/30 08:18:34;;;;;;;5.30;2.28;;;6.30;99.90;;;;;;4978013;28;89717;-37
2022/03/30 08:23:45;;;;;;;2.42;1.67;;;6.40;99.90;;;;;;4978678;28;88293;-34
2022/03/30 08:26:10;;;;;;;2.03;1.40;;;6.30;99.90;;;;;;4979668;28;90020;-34
2022/03/30 08:28:36;;;;;;;4.05;2.25;;;6.40;99.90;;;;;;4978776;28;90559;-36
2022/03/30 08:31:02;;;;;;;6.13;1.90;;;6.30;99.90;;;;;;4979215;28;89852;-38
2022/03/30 08:33:27;;;;;;;4.57;2.22;;;6.30;99.90;;;;;;4980088;28;89207;-33
2022/03/30 08:35:54;;;;;;;3.05;2.08;;;6.30;99.90;;;;;;4978246;28;90512;-33
2022/03/30 08:38:20;;;;;;;2.92;1.77;;;6.40;99.90;;;;;;4979709;28;89625;-35
2022/03/30 08:40:46;;;;;;;2.47;1.52;;;6.50;99.90;;;;;;4979002;28;89445;-35
2022/03/30 08:43:11;;;;;;;3.10;1.90;;;6.50;99.90;;;;;;4979363;28;88763;-35
2022/03/30 08:45:37;;;;;;;2.45;1.80;;;6.60;99.90;;;;;;4979178;28;90497;-34
2022/03/30 08:48:04;;;;;;;1.50;1.25;;;6.80;99.90;;;;;;4978930;28;89580;-34
2022/03/30 08:50:30;;;;;;;3.55;1.85;;;6.80;99.90;;;;;;4979301;28;89540;-36
2022/03/30 08:53:02;;;;;;;2.90;2.08;;;6.80;99.90;;;;;;4979315;28;88501;-34
2022/03/30 08:55:27;;;;;;;2.83;1.98;;;6.90;99.90;;;;;;4979046;28;90411;-37
2022/03/30 08:57:54;;;;;;;3.90;1.70;;;7.00;99.90;;;;;;4978446;28;89872;-38
2022/03/30 09:00:20;;;;;;;2.00;1.80;;;7.10;99.90;;;;;;4979016;28;88528;-35
2022/03/30 09:02:53;;;;;;;3.60;1.65;;;7.10;99.90;;;;;;4979176;28;87882;-35
2022/03/30 09:05:25;;;;;;;1.95;1.75;;;7.30;99.90;;;;;;4979103;28;90349;-37
2022/03/30 09:08:06;;;;;;;1.50;1.40;;;7.20;99.90;;;;;;4978968;28;90043;-34
2022/03/30 09:10:32;;;;;;;3.65;1.58;;;7.10;99.90;;;;;;4978654;28;89506;-34
2022/03/30 09:12:58;;;;;;;2.90;1.85;;;7.00;99.90;;;;;;4978522;28;89794;-34
2022/03/30 09:15:25;;;;;;;5.15;1.52;;;7.00;99.90;;;;;;4979406;28;90525;-35
2022/03/30 09:17:59;;;;;;;4.90;2.00;;;7.10;99.90;;;;;;4978100;28;91851;-35
2022/03/30 09:20:25;;;;;;;1.92;1.67;;;7.00;99.90;;;;;;4978987;28;89960;-38
2022/03/30 09:22:57;;;;;;;1.92;1.60;;;7.10;99.90;;;;;;4980990;28;88293;-35
2022/03/30 09:25:24;;;;;;;3.28;1.77;;;6.90;99.90;;;;;;4982460;28;90248;-33
2022/03/30 09:27:53;;;;;;;2.55;1.98;;;7.00;99.90;;;;;;4982593;28;90020;-35
2022/03/30 09:30:19;;;;;;;4.28;2.08;;;7.10;99.90;;;;;;4981885;28;89484;-33
2022/03/30 09:32:46;;;;;;;2.58;1.95;;;7.30;99.90;;;;;;4980983;28;89885;-38
2022/03/30 09:35:25;;;;;;;2.85;1.80;;;7.40;99.90;;;;;;4982287;28;90285;-36
2022/03/30 09:38:11;;;;;;;6.13;1.83;;;7.60;99.90;;;;;;4981802;28;88571;-36
2022/03/30 09:41:04;;;;;;;4.40;1.50;;;7.70;99.90;;;;;;4981873;28;89637;-36
2022/03/30 09:43:33;;;;;;;3.05;2.42;;;7.20;99.90;;;;;;4982139;28;88365;-34
2022/03/30 09:46:02;;;;;;;4.07;1.67;;;7.50;99.90;;;;;;4982085;28;90382;-34
2022/03/30 09:48:28;;;;;;;;;;;7.40;99.90;;;;;;4982206;28;89819;-38
2022/03/30 09:50:56;;;;;;;7.80;3.05;;;7.50;99.90;;;;;;4983084;28;89778;-34
2022/03/30 09:53:25;;;;;;;4.38;2.15;;;7.50;99.90;;;;;;4982184;28;89737;-33
2022/03/30 09:56:26;;;;;;;3.30;2.00;;;7.60;99.90;;;;;;4981658;28;90450;-33
2022/03/30 09:59:00;;;;;;;2.72;2.28;;;7.90;99.90;;;;;;4958644;28;89945;-33
2022/03/30 10:01:29;;;;;;;2.22;1.98;;;7.60;99.90;;;;;;4978264;28;90273;-35
2022/03/30 10:04:04;;;;;;;4.85;2.95;;;7.60;99.90;;;;;;4981123;28;88051;-35
2022/03/30 10:06:35;;;;;;;5.18;2.60;;;7.80;99.90;;;;;;4982410;28;90042;-35
2022/03/30 10:09:01;;;;;;;2.92;2.28;;;7.80;99.90;;;;;;4981915;28;90558;-36
2022/03/30 10:11:28;;;;;;;2.80;1.67;;;7.60;99.90;;;;;;4980918;28;90476;-35
2022/03/30 10:13:56;;;;;;;2.00;1.90;;;7.50;99.90;;;;;;4980817;28;88981;-33
2022/03/30 10:16:23;;;;;;;4.97;2.00;;;7.40;99.90;;;;;;4981348;28;90378;-38
2022/03/30 10:18:51;;;;;;;2.15;1.85;;;7.50;99.90;;;;;;4981290;28;88209;-35
2022/03/30 10:21:22;;;;;;;3.50;2.13;;;7.50;99.90;;;;;;4981241;28;89049;-37
2022/03/30 10:24:15;;;;;;;3.28;1.80;;;7.60;99.90;;;;;;4981433;28;89148;-37
2022/03/30 10:27:16;;;;;;;4.68;1.92;;;7.60;99.90;;;;;;4981248;28;90187;-35
2022/03/30 10:29:52;;;;;;;4.40;2.15;;;7.80;99.90;;;;;;4981465;28;91015;-34
2022/03/30 10:32:21;;;;;;;6.20;2.50;;;7.40;99.90;;;;;;4980822;28;89475;-35
2022/03/30 10:34:53;;;;;;;2.58;1.75;;;7.50;99.90;;;;;;4979105;28;89473;-36
2022/03/30 10:37:27;;;;;;;2.25;2.00;;;7.70;99.90;;;;;;4980847;28;90340;-35
2022/03/30 10:40:04;;;;;;;2.80;1.95;;;7.80;99.90;;;;;;4981288;28;90065;-34
2022/03/30 10:42:47;;;;;;;3.22;2.08;;;7.80;99.90;;;;;;4981713;28;89056;-34
2022/03/30 10:45:25;;;;;;;6.82;2.35;;;8.00;99.90;;;;;;4980901;28;87903;-34
2022/03/30 10:48:19;;;;;;;4.30;1.75;;;8.10;99.90;;;;;;4980297;28;90311;-34
2022/03/30 10:50:55;;;;;;;2.40;2.20;;;8.10;99.90;;;;;;4980378;28;89146;-34
2022/03/30 10:53:38;;;;;;;3.03;1.95;;;8.10;99.90;;;;;;4981331;28;88848;-34
2022/03/30 10:56:15;;;;;;;8.02;2.17;;;8.10;99.90;;;;;;4981886;28;89106;-33
2022/03/30 10:58:50;;;;;;;3.90;1.85;;;7.70;99.90;;;;;;4980600;28;90355;-37
2022/03/30 11:01:27;;;;;;;2.40;1.80;;;7.70;99.90;;;;;;4979984;28;90776;-35
2022/03/30 11:04:04;;;;;;;1.92;1.75;;;7.90;99.90;;;;;;4981156;28;90448;-34
2022/03/30 11:06:33;;;;;;;4.40;2.08;;;8.00;99.90;;;;;;4981078;28;88368;-32
2022/03/30 11:09:01;;;;;;;1.95;1.85;;;7.80;99.90;;;;;;4980641;28;90082;-34
2022/03/30 11:11:39;;;;;;;4.82;2.30;;;8.00;99.90;;;;;;4980640;28;89567;-34
2022/03/30 11:14:34;;;;;;;3.30;2.37;;;7.90;99.90;;;;;;5000423;28;89648;-36
2022/03/30 11:17:01;;;;;;;3.20;2.00;;;8.00;99.90;;;;;;5000773;28;88959;-35
2022/03/30 11:19:31;;;;;;;4.90;2.15;;;8.00;99.90;;;;;;5000046;28;90531;-36
2022/03/30 11:22:12;;;;;;;3.50;1.80;;;8.00;99.90;;;;;;5000012;28;90519;-37
2022/03/30 11:24:43;;;;;;;2.55;1.60;;;7.80;99.90;;;;;;4999235;28;89422;-38
2022/03/30 11:27:08;;;;;;;2.00;1.77;;;8.00;99.90;;;;;;4997749;28;88842;-33
2022/03/30 11:29:56;;;;;;;4.03;2.70;;;7.90;99.90;;;;;;4998767;28;89594;-38
2022/03/30 11:32:28;;;;;;;3.90;2.05;;;8.10;99.90;;;;;;4998731;28;89752;-32
2022/03/30 11:35:10;;;;;;;5.40;2.28;;;7.90;99.90;;;;;;4997267;28;89862;-34
2022/03/30 11:37:38;;;;;;;4.10;1.83;;;7.70;99.90;;;;;;4997894;28;90239;-36
2022/03/30 11:40:16;;;;;;;2.80;1.42;;;7.90;99.90;;;;;;4997624;28;90404;-37
2022/03/30 11:42:50;;;;;;;3.30;1.30;;;7.70;99.90;;;;;;4997996;28;89813;-36
2022/03/30 11:45:20;;;;;;;3.17;1.70;;;7.70;99.90;;;;;;4997155;28;88823;-36
2022/03/30 11:47:54;;;;;;;4.43;1.70;;;7.90;99.90;;;;;;4998190;28;89570;-35
2022/03/30 11:50:30;;;;;;;4.43;1.85;;;7.80;99.90;;;;;;4998707;28;91289;-36
2022/03/30 11:53:04;;;;;;;4.55;1.63;;;7.70;99.90;;;;;;4997904;28;90536;-38
2022/03/30 11:55:49;;;;;;;2.10;1.38;;;7.70;99.90;;;;;;4997044;28;89227;-34
2022/03/30 11:58:34;;;;;;;7.25;2.17;;;8.10;99.90;;;;;;4998149;28;89062;-36
2022/03/30 12:01:03;;;;;;;2.95;1.30;;;8.20;99.90;;;;;;4997183;28;89765;-38
2022/03/30 12:03:29;;;;;;;4.55;2.00;;;8.20;98.20;;;;;;4979414;28;90936;-35
2022/03/30 12:06:00;;;;;;;2.30;2.10;;;8.10;99.90;;;;;;4997017;28;90184;-38
2022/03/30 12:08:27;;;;;;;15.40;8.93;;;8.10;99.20;;;;;;4997918;28;88797;-34
2022/03/30 12:11:01;;;;;;;8.25;5.95;;;8.00;98.70;;;;;;4997846;28;90224;-35
2022/03/30 12:13:27;;;;;;;5.88;2.10;;;8.30;99.90;;;;;;4997195;28;90233;-35
2022/03/30 12:16:06;;;;;;;17.45;15.10;;;8.10;97.70;;;;;;4997843;28;89586;-34
2022/03/30 12:18:32;;;;;;;6.32;2.08;;;8.10;99.90;;;;;;4996250;28;90477;-36
2022/03/30 12:21:02;;;;;;;5.15;3.67;;;8.20;99.90;;;;;;5042780;22;90185;-34
2022/03/30 12:23:27;;;;;;;12.40;11.10;;;8.10;99.90;;;;;;5017747;28;89487;-38
2022/03/30 12:25:53;;;;;;;8.77;6.20;;;8.30;99.90;;;;;;5016530;28;89822;-37
2022/03/30 12:28:32;;;;;;;2.08;1.70;;;8.40;99.90;;;;;;5018440;28;89141;-36
2022/03/30 12:30:58;;;;;;;8.32;1.92;;;8.20;99.90;;;;;;5015435;28;90239;-36
2022/03/30 12:33:24;;;;;;;12.90;11.57;;;8.50;99.90;;;;;;5016334;28;90001;-35
2022/03/30 12:35:52;;;;;;;14.00;12.05;;;8.20;99.90;;;;;;5016662;28;89276;-35
2022/03/30 12:38:20;;;;;;;4.10;3.65;;;8.10;99.90;;;;;;5016735;28;87966;-33
2022/03/30 12:40:52;;;;;;;4.22;2.42;;;7.80;99.90;;;;;;5016494;28;90877;-36
2022/03/30 12:43:27;;;;;;;3.75;3.13;;;8.10;99.90;;;;;;5016225;28;90723;-33
2022/03/30 12:45:57;;;;;;;2.20;1.85;;;7.80;99.70;;;;;;5016654;28;90841;-34
2022/03/30 12:48:27;;;;;;;4.78;4.32;;;8.20;99.90;;;;;;5017639;28;88096;-33
2022/03/30 12:50:54;;;;;;;4.45;2.80;;;8.40;99.90;;;;;;5015931;28;90272;-35
2022/03/30 12:53:28;;;;;;;2.80;2.00;;;8.30;99.90;;;;;;5015965;28;90226;-36
2022/03/30 12:55:53;;;;;;;2.30;2.10;;;8.30;93.60;;;;;;5016293;28;89635;-34
2022/03/30 12:58:23;;;;;;;2.40;2.20;;;8.30;93.30;;;;;;5019729;28;89759;-33
2022/03/30 13:00:53;;;;;;;1.45;1.35;;;8.70;96.40;;;;;;5019396;28;90747;-34